createdAt,value
2022-11-23T00:01:20.441Z,4.20
2022-11-23T00:04:22.421Z,4.67
2022-11-23T00:07:24.178Z,4.32
2022-11-23T00:10:25.771Z,4.65
2022-11-23T00:13:27.714Z,5.05
2022-11-23T00:16:30.290Z,4.57
2022-11-23T00:19:32.237Z,4.37
2022-11-23T00:22:34.740Z,4.50
2022-11-23T00:25:36.417Z,4.63
2022-11-23T00:28:40.502Z,4.10
2022-11-23T00:31:42.194Z,4.80
2022-11-23T00:34:43.802Z,4.80
2022-11-23T00:37:45.459Z,4.63
2022-11-23T00:40:47.127Z,4.68
2022-11-23T00:43:49.339Z,3.85
2022-11-23T00:46:50.958Z,4.40
2022-11-23T00:49:52.707Z,4.77
2022-11-23T00:52:54.379Z,4.32
2022-11-23T00:55:56.959Z,3.88
2022-11-23T00:59:00.111Z,4.07
2022-11-23T01:02:01.766Z,4.50
2022-11-23T01:05:03.828Z,4.00
2022-11-23T01:08:06.507Z,5.00
2022-11-23T01:11:11.672Z,4.57
2022-11-23T01:14:13.312Z,3.92
2022-11-23T01:17:14.858Z,4.10
2022-11-23T01:20:16.476Z,4.30
2022-11-23T01:23:18.178Z,4.05
2022-11-23T01:26:20.158Z,4.20
2022-11-23T01:29:23.195Z,3.50
2022-11-23T01:32:24.852Z,4.13
2022-11-23T01:35:26.479Z,3.90
2022-11-23T01:38:28.240Z,3.78
2022-11-23T01:41:36.133Z,3.78
2022-11-23T01:44:39.593Z,4.10
2022-11-23T01:47:41.257Z,3.47
2022-11-23T01:50:44.644Z,4.40
2022-11-23T01:53:48.772Z,4.22
2022-11-23T01:56:55.543Z,5.20
2022-11-23T01:59:58.013Z,5.22
2022-11-23T02:03:01.041Z,5.13
2022-11-23T02:06:07.826Z,5.10
2022-11-23T02:09:11.206Z,5.47
2022-11-23T02:12:14.211Z,4.75
2022-11-23T02:15:16.090Z,5.03
2022-11-23T02:18:22.710Z,4.97
2022-11-23T02:21:24.409Z,5.17
2022-11-23T02:24:31.333Z,5.63
2022-11-23T02:27:33.316Z,5.20
2022-11-23T02:30:36.822Z,5.13
2022-11-23T02:33:40.769Z,5.53
2022-11-23T02:36:47.245Z,6.03
2022-11-23T02:39:52.052Z,5.03
2022-11-23T02:42:53.682Z,5.68
2022-11-23T02:45:57.815Z,5.65
2022-11-23T02:48:59.665Z,5.03
2022-11-23T02:52:01.984Z,5.27
2022-11-23T02:55:03.702Z,5.80
2022-11-23T02:58:06.122Z,5.35
2022-11-23T03:01:07.884Z,5.22
2022-11-23T03:04:10.567Z,5.23
2022-11-23T03:07:12.170Z,5.33
2022-11-23T03:10:13.955Z,5.22
2022-11-23T03:13:15.676Z,4.82
2022-11-23T03:16:17.270Z,5.18
2022-11-23T03:19:18.859Z,4.50
2022-11-23T03:22:20.424Z,5.67
2022-11-23T03:25:21.992Z,4.60
2022-11-23T03:28:23.571Z,4.85
2022-11-23T03:31:25.558Z,5.35
2022-11-23T03:34:27.199Z,5.23
2022-11-23T03:37:28.792Z,4.73
2022-11-23T03:40:30.356Z,4.97
2022-11-23T03:43:32.199Z,4.63
2022-11-23T03:46:33.838Z,4.57
2022-11-23T03:49:35.420Z,4.80
2022-11-23T03:52:37.064Z,4.10
2022-11-23T03:55:38.722Z,4.50
2022-11-23T03:58:40.473Z,4.53
2022-11-23T04:01:42.064Z,4.78
2022-11-23T04:04:44.315Z,4.40
2022-11-23T04:07:49.566Z,4.27
2022-11-23T04:10:51.151Z,4.78
2022-11-23T04:13:52.782Z,4.25
2022-11-23T04:16:54.442Z,4.60
2022-11-23T04:19:55.996Z,4.47
2022-11-23T04:22:57.761Z,4.77
2022-11-23T04:25:59.315Z,4.63
2022-11-23T04:29:00.951Z,5.15
2022-11-23T04:32:02.481Z,5.10
2022-11-23T04:35:04.497Z,5.03
2022-11-23T04:38:06.205Z,4.40
2022-11-23T04:41:07.919Z,4.68
2022-11-23T04:44:09.525Z,5.63
2022-11-23T04:47:11.851Z,6.18
2022-11-23T04:50:13.457Z,5.33
2022-11-23T04:53:15.063Z,5.73
2022-11-23T04:56:16.619Z,5.47
2022-11-23T04:59:19.595Z,6.07
2022-11-23T05:02:21.275Z,5.88
2022-11-23T05:05:22.893Z,5.67
2022-11-23T05:08:24.512Z,6.27
2022-11-23T05:11:27.124Z,6.30
2022-11-23T05:14:28.660Z,6.70
2022-11-23T05:17:30.311Z,6.38
2022-11-23T05:20:32.443Z,5.90
2022-11-23T05:23:34.058Z,5.67
2022-11-23T05:26:35.667Z,5.70
2022-11-23T05:29:37.682Z,5.85
2022-11-23T05:32:39.264Z,5.50
2022-11-23T05:35:40.900Z,5.27
2022-11-23T05:38:42.933Z,5.47
2022-11-23T05:41:44.543Z,6.60
2022-11-23T05:44:46.088Z,7.85
2022-11-23T05:47:56.375Z,6.22
2022-11-23T05:51:03.696Z,5.40
2022-11-23T05:54:07.761Z,5.27
2022-11-23T05:57:09.883Z,5.40
2022-11-23T06:00:12.004Z,5.35
2022-11-23T06:03:13.565Z,5.38
2022-11-23T06:06:15.154Z,5.30
2022-11-23T06:09:17.215Z,5.50
2022-11-23T06:12:18.836Z,5.38
2022-11-23T06:15:20.901Z,5.60
2022-11-23T06:18:22.707Z,5.78
2022-11-23T06:21:24.256Z,5.80
2022-11-23T06:24:25.906Z,5.70
2022-11-23T06:27:27.623Z,7.13
2022-11-23T06:30:30.717Z,6.50
2022-11-23T06:33:33.321Z,4.70
2022-11-23T06:36:35.069Z,5.70
2022-11-23T06:39:36.945Z,4.30
2022-11-23T06:42:39.978Z,4.65
2022-11-23T06:45:42.673Z,4.93
2022-11-23T06:48:45.454Z,5.20
2022-11-23T06:51:48.078Z,5.23
2022-11-23T06:54:49.746Z,5.07
2022-11-23T06:57:51.728Z,4.90
2022-11-23T07:00:53.664Z,5.25
2022-11-23T07:03:55.642Z,4.82
2022-11-23T07:06:57.278Z,4.50
2022-11-23T07:10:01.634Z,4.97
2022-11-23T07:13:08.859Z,6.90
2022-11-23T07:16:10.431Z,6.18
2022-11-23T07:19:14.447Z,4.43
2022-11-23T07:22:16.288Z,4.83
2022-11-23T07:25:19.054Z,4.73
2022-11-23T07:28:20.674Z,4.30
2022-11-23T07:31:22.347Z,4.93
2022-11-23T07:34:23.984Z,5.53
2022-11-23T07:37:25.579Z,4.80
2022-11-23T07:40:27.580Z,5.13
2022-11-23T07:43:29.723Z,5.28
2022-11-23T07:46:31.310Z,5.03
2022-11-23T07:49:33.366Z,5.10
2022-11-23T07:52:36.922Z,4.60
2022-11-23T07:55:38.531Z,4.40
2022-11-23T07:58:40.080Z,4.07
2022-11-23T08:01:41.922Z,4.68
2022-11-23T08:04:43.515Z,5.00
2022-11-23T08:07:45.884Z,4.40
2022-11-23T08:10:52.874Z,4.63
2022-11-23T08:13:55.258Z,5.65
2022-11-23T08:16:56.945Z,4.72
2022-11-23T08:19:58.632Z,4.47
2022-11-23T08:23:00.271Z,7.77
2022-11-23T08:26:06.647Z,4.80
2022-11-23T08:29:12.380Z,5.28
2022-11-23T08:32:13.998Z,14.35
2022-11-23T08:35:15.649Z,6.25
2022-11-23T08:38:17.398Z,5.00
2022-11-23T08:41:20.923Z,5.33
2022-11-23T08:44:22.733Z,5.35
2022-11-23T08:47:24.310Z,10.88
2022-11-23T08:50:25.975Z,4.80
2022-11-23T08:53:27.669Z,4.53
2022-11-23T08:56:29.307Z,5.63
2022-11-23T08:59:30.882Z,4.90
2022-11-23T09:02:33.159Z,4.82
2022-11-23T09:05:38.307Z,4.75
2022-11-23T09:08:39.935Z,5.00
2022-11-23T09:11:41.573Z,5.37
2022-11-23T09:14:43.338Z,4.70
2022-11-23T09:17:44.977Z,5.82
2022-11-23T09:20:46.608Z,4.85
2022-11-23T09:23:48.200Z,6.03
2022-11-23T09:26:49.737Z,5.60
2022-11-23T09:29:51.349Z,5.72
2022-11-23T09:32:55.816Z,5.38
2022-11-23T09:35:59.182Z,4.60
2022-11-23T09:39:00.792Z,4.77
2022-11-23T09:42:45.536Z,10.93
2022-11-23T09:45:51.176Z,5.05
2022-11-23T09:49:07.129Z,7.15
2022-11-23T09:52:18.380Z,6.60
2022-11-23T09:55:37.439Z,6.03
2022-11-23T09:58:41.199Z,6.37
2022-11-23T10:01:42.852Z,5.00
2022-11-23T10:04:44.564Z,4.78
2022-11-23T10:08:11.731Z,4.57
2022-11-23T10:11:25.352Z,4.47
2022-11-23T10:14:56.784Z,5.30
2022-11-23T10:18:07.604Z,4.90
2022-11-23T10:21:35.599Z,4.57
2022-11-23T10:24:44.167Z,4.60
2022-11-23T10:27:50.599Z,4.30
2022-11-23T10:31:28.312Z,4.23
2022-11-23T10:34:51.165Z,4.80
2022-11-23T10:38:11.233Z,5.75
2022-11-23T10:41:16.676Z,6.20
2022-11-23T10:44:18.236Z,4.23
2022-11-23T10:47:36.223Z,5.17
2022-11-23T10:50:40.777Z,4.78
2022-11-23T10:53:42.706Z,7.55
2022-11-23T10:56:52.734Z,7.82
2022-11-23T11:00:13.912Z,6.80
2022-11-23T11:03:23.867Z,7.17
2022-11-23T11:07:52.529Z,5.47
2022-11-23T11:11:25.152Z,7.75
2022-11-23T11:14:27.904Z,9.85
2022-11-23T11:17:33.105Z,5.80
2022-11-23T11:20:35.478Z,6.23
2022-11-23T11:23:41.158Z,5.50
2022-11-23T11:26:57.678Z,6.05
2022-11-23T11:30:06.490Z,5.45
2022-11-23T11:33:18.134Z,5.53
2022-11-23T11:36:22.029Z,5.33
2022-11-23T11:39:35.533Z,5.50
2022-11-23T11:42:50.153Z,5.63
2022-11-23T11:46:27.317Z,5.35
2022-11-23T11:49:28.501Z,5.50
2022-11-23T11:52:39.284Z,5.47
2022-11-23T11:55:54.682Z,5.25
2022-11-23T11:59:31.763Z,6.20
2022-11-23T12:02:49.506Z,5.75
2022-11-23T12:05:52.914Z,6.20
2022-11-23T12:08:54.515Z,6.10
2022-11-23T12:12:04.503Z,6.28
2022-11-23T12:15:47.886Z,6.15
2022-11-23T12:19:05.638Z,6.82
2022-11-23T12:22:41.299Z,6.40
2022-11-23T12:26:06.722Z,10.60
2022-11-23T12:29:38.218Z,9.20
2022-11-23T12:32:55.871Z,7.72
2022-11-23T12:36:30.035Z,6.97
2022-11-23T12:40:23.703Z,7.13
2022-11-23T12:43:44.050Z,6.23
2022-11-23T12:47:08.127Z,7.35
2022-11-23T12:50:39.413Z,6.85
2022-11-23T12:54:08.286Z,7.38
2022-11-23T12:57:22.675Z,6.77
2022-11-23T13:00:28.317Z,6.20
2022-11-23T13:04:08.809Z,6.95
2022-11-23T13:07:49.953Z,6.85
2022-11-23T13:11:26.363Z,7.68
2022-11-23T13:14:46.277Z,6.80
2022-11-23T13:18:17.106Z,6.80
2022-11-23T13:21:24.693Z,8.95
2022-11-23T13:24:34.747Z,8.13
2022-11-23T13:28:01.633Z,8.07
2022-11-23T13:31:16.039Z,6.97
2022-11-23T13:34:44.454Z,6.30
2022-11-23T13:37:58.240Z,7.07
2022-11-23T13:41:00.742Z,8.70
2022-11-23T13:44:20.780Z,6.97
2022-11-23T13:47:22.417Z,9.17
2022-11-23T13:50:24.054Z,12.90
2022-11-23T13:53:28.124Z,6.93
2022-11-23T13:56:39.455Z,8.75
2022-11-23T13:59:41.179Z,8.05
2022-11-23T14:02:42.887Z,7.37
2022-11-23T14:05:47.614Z,7.20
2022-11-23T14:09:00.175Z,7.55
2022-11-23T14:12:08.586Z,7.45
2022-11-23T14:15:29.240Z,7.75
2022-11-23T14:18:46.249Z,8.00
2022-11-23T14:22:03.590Z,7.70
2022-11-23T14:25:32.130Z,7.85
2022-11-23T14:28:52.519Z,8.70
2022-11-23T14:32:16.791Z,8.75
2022-11-23T14:35:33.227Z,7.37
2022-11-23T14:38:46.996Z,8.67
2022-11-23T14:41:54.975Z,7.97
2022-11-23T14:45:04.876Z,8.40
2022-11-23T14:48:23.036Z,9.00
2022-11-23T14:51:27.964Z,8.63
2022-11-23T14:54:31.163Z,8.47
2022-11-23T14:57:41.309Z,8.50
2022-11-23T15:00:43.880Z,8.60
2022-11-23T15:03:56.438Z,7.90
2022-11-23T15:07:06.700Z,8.43
2022-11-23T15:10:23.321Z,7.93
2022-11-23T15:13:30.750Z,7.63
2022-11-23T15:16:42.398Z,8.90
2022-11-23T15:19:54.164Z,10.18
2022-11-23T15:22:55.819Z,11.60
2022-11-23T15:26:01.079Z,17.23
2022-11-23T15:29:03.250Z,11.65
2022-11-23T15:32:30.376Z,11.60
2022-11-23T15:35:37.197Z,9.43
2022-11-23T15:38:39.526Z,8.03
2022-11-23T15:41:41.245Z,9.53
2022-11-23T15:44:47.459Z,8.90
2022-11-23T15:47:50.809Z,9.75
2022-11-23T15:50:58.746Z,10.02
2022-11-23T15:54:00.955Z,10.33
2022-11-23T15:57:07.182Z,9.30
2022-11-23T16:00:24.903Z,9.23
2022-11-23T16:03:52.669Z,9.13
2022-11-23T16:06:56.055Z,9.80
2022-11-23T16:10:18.135Z,9.67
2022-11-23T16:13:36.149Z,11.43
2022-11-23T16:16:42.703Z,10.38
2022-11-23T16:19:49.119Z,10.02
2022-11-23T16:22:52.817Z,10.27
2022-11-23T16:26:13.642Z,10.00
2022-11-23T16:29:22.429Z,10.07
2022-11-23T16:32:29.416Z,11.32
2022-11-23T16:35:31.270Z,10.50
2022-11-23T16:38:33.499Z,9.38
2022-11-23T16:41:35.313Z,9.90
2022-11-23T16:44:41.408Z,9.30
2022-11-23T16:48:00.929Z,8.95
2022-11-23T16:51:02.731Z,8.35
2022-11-23T16:54:24.560Z,7.68
2022-11-23T16:57:29.924Z,7.40
2022-11-23T17:00:33.822Z,7.13
2022-11-23T17:03:35.443Z,6.90
2022-11-23T17:06:37.172Z,7.28
2022-11-23T17:09:39.414Z,7.38
2022-11-23T17:12:49.355Z,7.30
2022-11-23T17:15:51.616Z,5.90
2022-11-23T17:18:53.462Z,5.20
2022-11-23T17:21:55.380Z,5.18
2022-11-23T17:24:57.262Z,6.07
2022-11-23T17:28:01.285Z,5.27
2022-11-23T17:31:02.907Z,5.57
2022-11-23T17:34:04.703Z,6.60
2022-11-23T17:37:08.779Z,6.55
2022-11-23T17:40:16.378Z,7.22
2022-11-23T17:43:23.947Z,7.03
2022-11-23T17:46:27.893Z,7.23
2022-11-23T17:49:30.934Z,7.68
2022-11-23T17:52:33.495Z,7.95
2022-11-23T17:55:35.309Z,7.03
2022-11-23T17:58:37.394Z,8.10
2022-11-23T18:01:39.378Z,8.00
2022-11-23T18:04:41.460Z,8.50
2022-11-23T18:07:43.580Z,9.60
2022-11-23T18:10:45.475Z,8.65
2022-11-23T18:13:50.127Z,7.40
2022-11-23T18:16:51.949Z,8.93
2022-11-23T18:19:53.877Z,10.00
2022-11-23T18:22:55.459Z,9.50
2022-11-23T18:26:27.180Z,9.63
2022-11-23T18:29:29.154Z,8.90
2022-11-23T18:32:31.202Z,8.83
2022-11-23T18:35:33.037Z,9.27
2022-11-23T18:38:35.239Z,10.07
2022-11-23T18:41:37.110Z,10.18
2022-11-23T18:44:38.697Z,8.73
2022-11-23T18:47:40.514Z,8.80
2022-11-23T18:50:43.777Z,8.02
2022-11-23T18:53:47.636Z,6.88
2022-11-23T18:56:50.866Z,8.40
2022-11-23T19:00:00.713Z,8.93
2022-11-23T19:03:04.485Z,7.70
2022-11-23T19:06:09.222Z,8.27
2022-11-23T19:09:13.093Z,7.68
2022-11-23T19:12:14.978Z,7.85
2022-11-23T19:15:16.981Z,8.63
2022-11-23T19:18:18.700Z,8.17
2022-11-23T19:21:22.536Z,8.52
2022-11-23T19:24:24.319Z,8.48
2022-11-23T19:27:26.128Z,8.52
2022-11-23T19:30:27.851Z,8.17
2022-11-23T19:33:29.896Z,9.07
2022-11-23T19:36:36.084Z,8.45
2022-11-23T19:39:37.716Z,8.05
2022-11-23T19:42:39.343Z,6.88
2022-11-23T19:45:41.151Z,6.97
2022-11-23T19:48:43.025Z,7.13
2022-11-23T19:51:45.351Z,7.15
2022-11-23T19:54:47.180Z,6.57
2022-11-23T19:57:49.030Z,6.60
2022-11-23T20:00:51.968Z,6.40
2022-11-23T20:03:55.523Z,6.20
2022-11-23T20:06:57.608Z,6.32
2022-11-23T20:09:59.433Z,6.80
2022-11-23T20:13:02.343Z,6.40
2022-11-23T20:16:06.419Z,6.30
2022-11-23T20:19:09.229Z,6.40
2022-11-23T20:22:12.034Z,6.70
2022-11-23T20:25:14.455Z,7.53
2022-11-23T20:28:16.995Z,6.55
2022-11-23T20:31:21.539Z,7.20
2022-11-23T20:34:26.235Z,8.63
2022-11-23T20:37:28.389Z,7.35
2022-11-23T20:40:30.055Z,8.07
2022-11-23T20:43:31.881Z,7.07
2022-11-23T20:49:56.161Z,6.63
2022-11-23T20:53:02.778Z,6.97
2022-11-23T20:56:06.585Z,7.78
2022-11-23T20:59:08.458Z,7.40
2022-11-23T21:02:11.718Z,7.47
2022-11-23T21:05:13.499Z,7.90
2022-11-23T21:08:25.999Z,7.72
2022-11-23T21:11:48.262Z,8.60
2022-11-23T21:14:50.075Z,8.02
2022-11-23T21:17:51.733Z,8.10
2022-11-23T21:20:54.641Z,8.20
2022-11-23T21:23:56.362Z,8.30
2022-11-23T21:26:58.095Z,8.63
2022-11-23T21:30:01.027Z,8.80
2022-11-23T21:33:02.613Z,8.30
2022-11-23T21:36:05.656Z,7.30
2022-11-23T21:39:10.049Z,8.10
2022-11-23T21:42:11.964Z,8.35
2022-11-23T21:45:13.649Z,8.43
2022-11-23T21:48:15.279Z,8.53
2022-11-23T21:51:16.985Z,8.03
2022-11-23T21:54:18.707Z,8.00
2022-11-23T21:57:20.276Z,9.57
2022-11-23T22:00:28.403Z,9.32
2022-11-23T22:03:43.387Z,8.60
2022-11-23T22:06:45.467Z,8.80
2022-11-23T22:09:47.275Z,9.15
2022-11-23T22:12:48.883Z,9.05
2022-11-23T22:15:50.612Z,9.50
2022-11-23T22:18:55.761Z,10.07
2022-11-23T22:21:57.839Z,9.90
2022-11-23T22:24:59.404Z,10.70
2022-11-23T22:28:01.137Z,10.45
2022-11-23T22:31:04.175Z,10.60
2022-11-23T22:34:09.293Z,9.67
2022-11-23T22:37:11.144Z,11.03
2022-11-23T22:40:13.025Z,10.23
2022-11-23T22:43:14.795Z,11.60
2022-11-23T22:46:19.886Z,10.93
2022-11-23T22:49:21.783Z,10.93
2022-11-23T22:52:23.457Z,10.87
2022-11-23T22:55:25.504Z,10.70
2022-11-23T22:58:27.835Z,11.40
2022-11-23T23:01:30.704Z,11.27
2022-11-23T23:04:32.598Z,12.07
2022-11-23T23:07:34.418Z,10.30
2022-11-23T23:10:36.454Z,11.07
2022-11-23T23:13:38.890Z,11.30
2022-11-23T23:16:40.703Z,10.27
2022-11-23T23:19:42.594Z,11.27
2022-11-23T23:22:44.199Z,11.10
2022-11-23T23:25:45.779Z,12.07
2022-11-23T23:28:48.022Z,11.48
2022-11-23T23:31:49.647Z,11.70
2022-11-23T23:34:51.287Z,12.67
2022-11-23T23:37:53.506Z,11.57
2022-11-23T23:40:57.991Z,12.38
2022-11-23T23:43:59.627Z,12.30
2022-11-23T23:47:01.327Z,12.82
2022-11-23T23:50:03.337Z,12.47
2022-11-23T23:53:04.955Z,12.47
2022-11-23T23:56:27.982Z,14.15
2022-11-23T23:59:29.754Z,13.05
